Buckner, Kentucky
Current Conditions -  °F | °C
As of 12:53 PM on Wednesday 28 Jan 2015 (Local Time) from KLOU Reporting Station
Clear Clear  
Wind Chill: 28°   Ceiling: Unl
Heat Index: 34°   Visibility: 10mi
Dew Point: 12°   Wind: 7mph
Humidity: 40%   Direction: 110°ESE
Pressure: 30.33"   Gusts: NA
Location:  38.38°N, 85.44°W
Report Text: KLOU 281753Z 11006KT 10SM CLR 01/M11 A3033 RMK AO2 SLP277 T00111111 10011 21072 58018
Loading
Personal Weather Stations






























Interactive Weather Map New forecast layout! Learn more

10-Day Weather Forecast

Advertisements
Track Severe Weather on mobile